This is the latest recevied weather packets stored in our database for station/object IZ7XUV. If no packets are shown the sender has not sent any weather packets the latest 10 day(s).
| Time | Temp. | Humidity | Pressure | Rain* | Wind** | Luminosity | Snow |
|---|---|---|---|---|---|---|---|
| 1778010323 | 18.33° C | 71% | 1016.2 hPa | 0 mm | - | 0 W/m² | - |
| 1778001356 | 18.33° C | 67% | 1015.9 hPa | 0 mm | - | 31 W/m² | - |
| 1778000745 | 18.33° C | 71% | 1016 hPa | 0 mm | - | 24 W/m² | - |
| 1777994157 | 20° C | 56% | 1016.5 hPa | 0 mm | - | 178 W/m² | - |
| 1777993547 | 20° C | 57% | 1016.6 hPa | 0 mm | - | 236 W/m² | - |
| 1777992937 | 20° C | 58% | 1016.6 hPa | 0 mm | - | 210 W/m² | - |
| 1777990558 | 19.44° C | 61% | 1016.7 hPa | 0 mm | - | 213 W/m² | - |
| 1777989338 | 18.89° C | 62% | 1017 hPa | 0 mm | - | 107 W/m² | - |
| 1777985740 | 18.89° C | 79% | 1017.7 hPa | 0 mm | - | 110 W/m² | - |
| 1777985150 | 18.89° C | 77% | 1017.9 hPa | 0 mm | - | 111 W/m² | - |
| 1777980921 | 19.44° C | 74% | 1018.1 hPa | 0 mm | - | 173 W/m² | - |
| 1777976162 | 19.44° C | 72% | 1017.2 hPa | 0 mm | - | 138 W/m² | - |
| 1777972563 | 21.11° C | 65% | 1016.9 hPa | 0 mm | - | 544 W/m² | - |
| 1777970733 | 22.78° C | 56% | 1016.7 hPa | 0 mm | - | 551 W/m² | - |
| 1777969574 | 22.22° C | 56% | 1016.7 hPa | 0 mm | - | 435 W/m² | - |
| 1777968354 | 23.33° C | 43% | 1016.8 hPa | 0 mm | - | 612 W/m² | - |
| 1777963536 | 20.56° C | 52% | 1017.2 hPa | 0 mm | - | 347 W/m² | - |
| 1777957557 | 16.11° C | 65% | 1017 hPa | 0 mm | - | 99 W/m² | - |
| 1777956948 | 15.56° C | 67% | 1017 hPa | 0 mm | - | 96 W/m² | - |
| 1777952738 | 12.78° C | 72% | 1017 hPa | 0 mm | - | 2 W/m² | - |
| 1777950969 | 12.78° C | 74% | 1017.1 hPa | 0 mm | - | 0 W/m² | - |
| 1777944320 | 12.78° C | 77% | 1017.5 hPa | 0 mm | - | 0 W/m² | - |
| 1777939562 | 14.44° C | 74% | 1017.8 hPa | 0 mm | - | 0 W/m² | - |
| 1777937733 | 16.11° C | 69% | 1018.2 hPa | 0 mm | - | 0 W/m² | - |
| 1777936574 | 16.11° C | 68% | 1018.3 hPa | 0 mm | - | 0 W/m² | - |
* Rain latest hour (hover to see other rain measurements)
** Current wind speed in m/s (hover to see current wind gust speed)